sensor_id;sensor_type;location;lat;lon;timestamp;P1;durP1;ratioP1;P2;durP2;ratioP2
1563;SDS011;775;51.958;7.976;2024-03-23T00:54:31;21.80;;;3.30;;
1563;SDS011;775;51.958;7.976;2024-03-23T00:57:18;19.80;;;3.30;;
1563;SDS011;775;51.958;7.976;2024-03-23T01:00:06;19.00;;;3.07;;
1563;SDS011;775;51.958;7.976;2024-03-23T01:02:55;20.43;;;3.57;;
1563;SDS011;775;51.958;7.976;2024-03-23T01:05:43;17.30;;;2.77;;
1563;SDS011;775;51.958;7.976;2024-03-23T01:08:29;19.10;;;2.77;;
1563;SDS011;775;51.958;7.976;2024-03-23T01:11:18;19.20;;;2.53;;
1563;SDS011;775;51.958;7.976;2024-03-23T01:14:04;21.10;;;3.80;;
1563;SDS011;775;51.958;7.976;2024-03-23T01:16:52;18.90;;;2.90;;
1563;SDS011;775;51.958;7.976;2024-03-23T01:19:38;16.57;;;2.50;;
1563;SDS011;775;51.958;7.976;2024-03-23T01:22:26;18.10;;;2.90;;
1563;SDS011;775;51.958;7.976;2024-03-23T01:25:13;17.80;;;2.40;;
1563;SDS011;775;51.958;7.976;2024-03-23T01:28:02;19.77;;;2.40;;
1563;SDS011;775;51.958;7.976;2024-03-23T01:30:48;18.53;;;2.27;;
1563;SDS011;775;51.958;7.976;2024-03-23T01:33:36;17.33;;;2.00;;
1563;SDS011;775;51.958;7.976;2024-03-23T01:36:22;15.37;;;2.00;;
1563;SDS011;775;51.958;7.976;2024-03-23T01:39:10;17.50;;;2.23;;
1563;SDS011;775;51.958;7.976;2024-03-23T01:41:59;17.83;;;2.00;;
1563;SDS011;775;51.958;7.976;2024-03-23T01:44:48;19.47;;;2.60;;
1563;SDS011;775;51.958;7.976;2024-03-23T01:47:35;16.80;;;2.77;;
1563;SDS011;775;51.958;7.976;2024-03-23T01:50:22;17.67;;;2.90;;
1563;SDS011;775;51.958;7.976;2024-03-23T01:53:09;18.80;;;2.60;;
1563;SDS011;775;51.958;7.976;2024-03-23T01:55:56;19.50;;;2.63;;
1563;SDS011;775;51.958;7.976;2024-03-23T01:58:43;19.67;;;2.43;;
1563;SDS011;775;51.958;7.976;2024-03-23T02:01:32;18.10;;;2.30;;
1563;SDS011;775;51.958;7.976;2024-03-23T02:04:18;16.17;;;2.27;;
1563;SDS011;775;51.958;7.976;2024-03-23T02:07:06;17.50;;;2.53;;
1563;SDS011;775;51.958;7.976;2024-03-23T02:09:53;18.10;;;2.80;;
1563;SDS011;775;51.958;7.976;2024-03-23T02:12:40;18.27;;;2.70;;
1563;SDS011;775;51.958;7.976;2024-03-23T02:15:28;18.03;;;2.50;;
1563;SDS011;775;51.958;7.976;2024-03-23T02:18:15;17.33;;;2.30;;
1563;SDS011;775;51.958;7.976;2024-03-23T02:21:03;19.70;;;2.53;;
1563;SDS011;775;51.958;7.976;2024-03-23T02:23:51;16.57;;;2.30;;
1563;SDS011;775;51.958;7.976;2024-03-23T02:26:39;18.20;;;3.50;;
1563;SDS011;775;51.958;7.976;2024-03-23T02:29:25;16.83;;;2.77;;
1563;SDS011;775;51.958;7.976;2024-03-23T02:32:12;20.17;;;2.43;;
1563;SDS011;775;51.958;7.976;2024-03-23T02:34:59;18.70;;;2.37;;
1563;SDS011;775;51.958;7.976;2024-03-23T02:37:46;17.53;;;2.20;;
1563;SDS011;775;51.958;7.976;2024-03-23T02:40:35;17.80;;;2.50;;
1563;SDS011;775;51.958;7.976;2024-03-23T02:43:23;16.37;;;2.80;;
1563;SDS011;775;51.958;7.976;2024-03-23T02:46:09;18.17;;;2.50;;
1563;SDS011;775;51.958;7.976;2024-03-23T02:48:57;17.40;;;3.10;;
1563;SDS011;775;51.958;7.976;2024-03-23T02:51:43;17.63;;;2.90;;
1563;SDS011;775;51.958;7.976;2024-03-23T02:54:33;19.60;;;3.53;;
1563;SDS011;775;51.958;7.976;2024-03-23T02:57:21;23.00;;;3.63;;
1563;SDS011;775;51.958;7.976;2024-03-23T03:00:09;17.20;;;2.47;;
1563;SDS011;775;51.958;7.976;2024-03-23T03:02:56;17.63;;;2.60;;
1563;SDS011;775;51.958;7.976;2024-03-23T03:05:43;17.30;;;2.70;;
1563;SDS011;775;51.958;7.976;2024-03-23T03:08:30;17.47;;;2.83;;
1563;SDS011;775;51.958;7.976;2024-03-23T03:11:17;16.00;;;2.53;;
1563;SDS011;775;51.958;7.976;2024-03-23T03:14:05;17.20;;;2.87;;
1563;SDS011;775;51.958;7.976;2024-03-23T03:16:53;21.37;;;3.67;;
1563;SDS011;775;51.958;7.976;2024-03-23T03:19:39;18.13;;;2.57;;
1563;SDS011;775;51.958;7.976;2024-03-23T03:22:27;17.30;;;3.30;;
1563;SDS011;775;51.958;7.976;2024-03-23T03:25:15;18.37;;;2.60;;
1563;SDS011;775;51.958;7.976;2024-03-23T03:28:02;19.97;;;3.27;;
1563;SDS011;775;51.958;7.976;2024-03-23T03:30:50;18.73;;;2.33;;
1563;SDS011;775;51.958;7.976;2024-03-23T03:33:38;15.80;;;2.57;;
1563;SDS011;775;51.958;7.976;2024-03-23T03:36:24;18.63;;;2.60;;
1563;SDS011;775;51.958;7.976;2024-03-23T03:39:12;17.27;;;2.77;;
1563;SDS011;775;51.958;7.976;2024-03-23T03:41:58;18.37;;;2.63;;
1563;SDS011;775;51.958;7.976;2024-03-23T03:44:47;22.10;;;2.97;;
1563;SDS011;775;51.958;7.976;2024-03-23T03:47:35;19.17;;;3.03;;
1563;SDS011;775;51.958;7.976;2024-03-23T03:50:22;17.47;;;2.20;;
1563;SDS011;775;51.958;7.976;2024-03-23T03:53:09;16.70;;;2.83;;
1563;SDS011;775;51.958;7.976;2024-03-23T03:55:56;20.07;;;3.50;;
1563;SDS011;775;51.958;7.976;2024-03-23T03:58:43;21.70;;;2.80;;
1563;SDS011;775;51.958;7.976;2024-03-23T04:01:30;16.67;;;3.07;;
1563;SDS011;775;51.958;7.976;2024-03-23T04:04:18;19.77;;;2.90;;
1563;SDS011;775;51.958;7.976;2024-03-23T04:07:07;19.03;;;2.70;;
1563;SDS011;775;51.958;7.976;2024-03-23T04:09:54;17.53;;;2.87;;
1563;SDS011;775;51.958;7.976;2024-03-23T04:12:42;17.30;;;3.03;;
1563;SDS011;775;51.958;7.976;2024-03-23T04:15:29;20.00;;;3.10;;
1563;SDS011;775;51.958;7.976;2024-03-23T04:18:16;19.20;;;3.20;;
1563;SDS011;775;51.958;7.976;2024-03-23T04:21:04;18.43;;;3.20;;
1563;SDS011;775;51.958;7.976;2024-03-23T04:23:52;23.80;;;3.87;;
1563;SDS011;775;51.958;7.976;2024-03-23T04:26:42;18.20;;;3.10;;
1563;SDS011;775;51.958;7.976;2024-03-23T04:29:29;19.13;;;3.13;;
1563;SDS011;775;51.958;7.976;2024-03-23T04:32:16;22.17;;;3.90;;
1563;SDS011;775;51.958;7.976;2024-03-23T04:35:04;21.17;;;4.17;;
1563;SDS011;775;51.958;7.976;2024-03-23T04:37:52;21.93;;;3.63;;
1563;SDS011;775;51.958;7.976;2024-03-23T04:40:41;24.30;;;4.70;;
1563;SDS011;775;51.958;7.976;2024-03-23T04:43:28;22.07;;;4.00;;
1563;SDS011;775;51.958;7.976;2024-03-23T04:46:16;22.37;;;4.00;;
1563;SDS011;775;51.958;7.976;2024-03-23T04:49:03;21.70;;;4.10;;
1563;SDS011;775;51.958;7.976;2024-03-23T04:51:51;22.90;;;4.50;;
1563;SDS011;775;51.958;7.976;2024-03-23T04:54:39;22.97;;;4.70;;
1563;SDS011;775;51.958;7.976;2024-03-23T04:57:27;23.00;;;4.97;;
1563;SDS011;775;51.958;7.976;2024-03-23T05:00:15;20.93;;;4.10;;
1563;SDS011;775;51.958;7.976;2024-03-23T05:03:02;24.03;;;5.40;;
1563;SDS011;775;51.958;7.976;2024-03-23T05:05:50;22.53;;;4.40;;
1563;SDS011;775;51.958;7.976;2024-03-23T05:08:37;21.30;;;4.33;;
1563;SDS011;775;51.958;7.976;2024-03-23T05:11:26;25.80;;;5.30;;
1563;SDS011;775;51.958;7.976;2024-03-23T05:14:12;20.53;;;4.80;;
1563;SDS011;775;51.958;7.976;2024-03-23T05:17:00;26.20;;;5.23;;
1563;SDS011;775;51.958;7.976;2024-03-23T05:19:48;22.70;;;4.50;;
1563;SDS011;775;51.958;7.976;2024-03-23T05:22:35;24.53;;;5.40;;
1563;SDS011;775;51.958;7.976;2024-03-23T05:25:22;20.00;;;4.50;;
1563;SDS011;775;51.958;7.976;2024-03-23T05:28:10;19.83;;;4.53;;
1563;SDS011;775;51.958;7.976;2024-03-23T05:30:57;21.90;;;4.73;;
1563;SDS011;775;51.958;7.976;2024-03-23T05:33:44;22.43;;;5.13;;
1563;SDS011;775;51.958;7.976;2024-03-23T05:36:33;23.00;;;4.43;;
1563;SDS011;775;51.958;7.976;2024-03-23T05:39:20;20.33;;;4.60;;
1563;SDS011;775;51.958;7.976;2024-03-23T05:42:07;23.83;;;4.83;;
1563;SDS011;775;51.958;7.976;2024-03-23T05:44:56;21.53;;;4.97;;
1563;SDS011;775;51.958;7.976;2024-03-23T05:47:43;22.10;;;5.47;;
1563;SDS011;775;51.958;7.976;2024-03-23T05:50:30;21.93;;;4.87;;
1563;SDS011;775;51.958;7.976;2024-03-23T05:53:17;28.13;;;7.00;;
1563;SDS011;775;51.958;7.976;2024-03-23T05:56:06;24.43;;;5.60;;
1563;SDS011;775;51.958;7.976;2024-03-23T05:58:52;22.33;;;6.53;;
1563;SDS011;775;51.958;7.976;2024-03-23T06:01:41;26.03;;;5.67;;
1563;SDS011;775;51.958;7.976;2024-03-23T06:04:27;23.93;;;7.23;;
1563;SDS011;775;51.958;7.976;2024-03-23T06:07:15;30.20;;;7.00;;
1563;SDS011;775;51.958;7.976;2024-03-23T06:10:01;24.07;;;6.50;;
1563;SDS011;775;51.958;7.976;2024-03-23T06:12:49;31.10;;;8.50;;
1563;SDS011;775;51.958;7.976;2024-03-23T06:15:37;34.30;;;7.50;;
1563;SDS011;775;51.958;7.976;2024-03-23T06:18:26;23.03;;;7.80;;
1563;SDS011;775;51.958;7.976;2024-03-23T06:21:13;33.83;;;7.57;;
1563;SDS011;775;51.958;7.976;2024-03-23T06:24:00;27.20;;;7.13;;
1563;SDS011;775;51.958;7.976;2024-03-23T06:26:47;23.93;;;7.47;;
1563;SDS011;775;51.958;7.976;2024-03-23T06:29:35;27.07;;;7.40;;
1563;SDS011;775;51.958;7.976;2024-03-23T06:32:22;29.20;;;8.00;;
1563;SDS011;775;51.958;7.976;2024-03-23T06:35:10;25.10;;;7.23;;
1563;SDS011;775;51.958;7.976;2024-03-23T06:37:58;26.37;;;7.17;;
1563;SDS011;775;51.958;7.976;2024-03-23T06:40:44;28.20;;;8.33;;
1563;SDS011;775;51.958;7.976;2024-03-23T06:43:34;27.40;;;7.60;;
1563;SDS011;775;51.958;7.976;2024-03-23T06:46:20;26.77;;;8.80;;
1563;SDS011;775;51.958;7.976;2024-03-23T06:49:08;23.23;;;8.07;;
1563;SDS011;775;51.958;7.976;2024-03-23T06:51:56;26.23;;;8.10;;
1563;SDS011;775;51.958;7.976;2024-03-23T06:54:43;29.93;;;8.43;;
1563;SDS011;775;51.958;7.976;2024-03-23T06:57:30;28.70;;;10.30;;
1563;SDS011;775;51.958;7.976;2024-03-23T07:00:17;28.27;;;8.20;;
1563;SDS011;775;51.958;7.976;2024-03-23T07:03:05;30.20;;;9.57;;
1563;SDS011;775;51.958;7.976;2024-03-23T07:05:52;26.30;;;8.67;;
1563;SDS011;775;51.958;7.976;2024-03-23T07:08:41;25.70;;;8.80;;
1563;SDS011;775;51.958;7.976;2024-03-23T07:11:27;30.77;;;10.57;;
1563;SDS011;775;51.958;7.976;2024-03-23T07:14:15;27.80;;;8.63;;
1563;SDS011;775;51.958;7.976;2024-03-23T07:17:01;28.60;;;8.37;;
1563;SDS011;775;51.958;7.976;2024-03-23T07:19:49;28.33;;;8.60;;
1563;SDS011;775;51.958;7.976;2024-03-23T07:22:35;24.37;;;8.37;;
1563;SDS011;775;51.958;7.976;2024-03-23T07:25:24;33.17;;;8.23;;
1563;SDS011;775;51.958;7.976;2024-03-23T07:28:12;26.43;;;8.50;;
1563;SDS011;775;51.958;7.976;2024-03-23T07:31:03;31.70;;;8.60;;
1563;SDS011;775;51.958;7.976;2024-03-23T07:33:49;32.30;;;8.30;;
1563;SDS011;775;51.958;7.976;2024-03-23T07:36:37;27.00;;;7.90;;
1563;SDS011;775;51.958;7.976;2024-03-23T07:39:23;25.70;;;8.60;;
1563;SDS011;775;51.958;7.976;2024-03-23T07:42:14;28.17;;;7.80;;
1563;SDS011;775;51.958;7.976;2024-03-23T07:45:01;23.80;;;8.47;;
1563;SDS011;775;51.958;7.976;2024-03-23T07:47:48;29.50;;;9.30;;
1563;SDS011;775;51.958;7.976;2024-03-23T07:50:34;29.30;;;7.70;;
1563;SDS011;775;51.958;7.976;2024-03-23T07:53:22;27.70;;;7.57;;
1563;SDS011;775;51.958;7.976;2024-03-23T07:56:08;21.37;;;7.30;;
1563;SDS011;775;51.958;7.976;2024-03-23T07:58:58;25.00;;;7.23;;
1563;SDS011;775;51.958;7.976;2024-03-23T08:01:44;24.57;;;6.73;;
1563;SDS011;775;51.958;7.976;2024-03-23T08:04:32;24.13;;;7.07;;
1563;SDS011;775;51.958;7.976;2024-03-23T08:07:18;24.27;;;6.80;;
1563;SDS011;775;51.958;7.976;2024-03-23T08:10:06;23.60;;;6.50;;
1563;SDS011;775;51.958;7.976;2024-03-23T08:12:52;25.17;;;6.97;;
1563;SDS011;775;51.958;7.976;2024-03-23T08:15:41;27.90;;;7.33;;
1563;SDS011;775;51.958;7.976;2024-03-23T08:18:28;21.80;;;6.10;;
1563;SDS011;775;51.958;7.976;2024-03-23T08:21:15;23.43;;;7.20;;
1563;SDS011;775;51.958;7.976;2024-03-23T08:24:02;23.37;;;6.10;;
1563;SDS011;775;51.958;7.976;2024-03-23T08:26:50;25.23;;;5.80;;
1563;SDS011;775;51.958;7.976;2024-03-23T08:29:37;25.57;;;6.10;;
1563;SDS011;775;51.958;7.976;2024-03-23T08:32:26;21.37;;;5.40;;
1563;SDS011;775;51.958;7.976;2024-03-23T08:35:12;23.27;;;5.80;;
1563;SDS011;775;51.958;7.976;2024-03-23T08:38:00;26.30;;;4.63;;
1563;SDS011;775;51.958;7.976;2024-03-23T08:40:46;22.93;;;4.80;;
1563;SDS011;775;51.958;7.976;2024-03-23T08:43:35;21.73;;;4.60;;
1563;SDS011;775;51.958;7.976;2024-03-23T08:46:22;25.23;;;4.60;;
1563;SDS011;775;51.958;7.976;2024-03-23T08:49:11;22.93;;;5.07;;
1563;SDS011;775;51.958;7.976;2024-03-23T08:51:59;22.67;;;4.10;;
1563;SDS011;775;51.958;7.976;2024-03-23T08:54:46;22.30;;;4.07;;
1563;SDS011;775;51.958;7.976;2024-03-23T08:57:33;24.53;;;4.70;;
1563;SDS011;775;51.958;7.976;2024-03-23T09:00:20;21.70;;;4.10;;
1563;SDS011;775;51.958;7.976;2024-03-23T09:03:07;19.47;;;3.77;;
1563;SDS011;775;51.958;7.976;2024-03-23T09:05:56;20.33;;;4.80;;
1563;SDS011;775;51.958;7.976;2024-03-23T09:08:43;19.43;;;3.30;;
1563;SDS011;775;51.958;7.976;2024-03-23T09:11:31;18.87;;;3.70;;
1563;SDS011;775;51.958;7.976;2024-03-23T09:14:17;17.83;;;2.70;;
1563;SDS011;775;51.958;7.976;2024-03-23T09:17:05;19.03;;;3.30;;
1563;SDS011;775;51.958;7.976;2024-03-23T09:19:52;21.83;;;3.90;;
1563;SDS011;775;51.958;7.976;2024-03-23T09:22:41;23.23;;;3.23;;
1563;SDS011;775;51.958;7.976;2024-03-23T09:25:27;16.97;;;3.33;;
1563;SDS011;775;51.958;7.976;2024-03-23T09:28:15;17.70;;;3.57;;
1563;SDS011;775;51.958;7.976;2024-03-23T09:31:04;20.27;;;3.20;;
1563;SDS011;775;51.958;7.976;2024-03-23T09:33:52;17.00;;;3.07;;
1563;SDS011;775;51.958;7.976;2024-03-23T09:36:39;19.63;;;3.53;;
1563;SDS011;775;51.958;7.976;2024-03-23T09:39:28;24.17;;;4.30;;
1563;SDS011;775;51.958;7.976;2024-03-23T09:42:15;18.17;;;3.43;;
1563;SDS011;775;51.958;7.976;2024-03-23T09:45:02;18.10;;;3.53;;
1563;SDS011;775;51.958;7.976;2024-03-23T09:47:52;17.90;;;3.47;;
1563;SDS011;775;51.958;7.976;2024-03-23T09:50:39;19.57;;;3.77;;
1563;SDS011;775;51.958;7.976;2024-03-23T09:53:26;22.10;;;4.90;;
1563;SDS011;775;51.958;7.976;2024-03-23T09:56:15;19.63;;;3.87;;
1563;SDS011;775;51.958;7.976;2024-03-23T09:59:03;18.57;;;3.80;;
1563;SDS011;775;51.958;7.976;2024-03-23T10:01:51;20.20;;;3.93;;
1563;SDS011;775;51.958;7.976;2024-03-23T10:04:39;18.20;;;3.77;;
1563;SDS011;775;51.958;7.976;2024-03-23T10:07:27;16.73;;;3.47;;
1563;SDS011;775;51.958;7.976;2024-03-23T10:10:15;21.50;;;3.27;;
1563;SDS011;775;51.958;7.976;2024-03-23T10:13:04;16.57;;;2.90;;
1563;SDS011;775;51.958;7.976;2024-03-23T10:15:57;16.23;;;3.57;;
1563;SDS011;775;51.958;7.976;2024-03-23T10:18:45;19.50;;;3.17;;
1563;SDS011;775;51.958;7.976;2024-03-23T10:21:31;18.40;;;3.70;;
1563;SDS011;775;51.958;7.976;2024-03-23T10:24:19;23.30;;;3.53;;
1563;SDS011;775;51.958;7.976;2024-03-23T10:27:05;16.60;;;3.50;;
1563;SDS011;775;51.958;7.976;2024-03-23T10:29:54;17.60;;;3.47;;
1563;SDS011;775;51.958;7.976;2024-03-23T10:32:56;19.33;;;4.40;;
1563;SDS011;775;51.958;7.976;2024-03-23T10:35:53;17.70;;;3.63;;
1563;SDS011;775;51.958;7.976;2024-03-23T10:38:40;22.83;;;3.97;;
1563;SDS011;775;51.958;7.976;2024-03-23T10:41:28;21.80;;;4.40;;
1563;SDS011;775;51.958;7.976;2024-03-23T10:44:14;16.90;;;3.37;;
1563;SDS011;775;51.958;7.976;2024-03-23T10:47:05;18.67;;;3.33;;
1563;SDS011;775;51.958;7.976;2024-03-23T10:49:51;16.77;;;3.40;;
1563;SDS011;775;51.958;7.976;2024-03-23T10:52:39;20.43;;;3.90;;
1563;SDS011;775;51.958;7.976;2024-03-23T10:55:28;19.97;;;3.87;;
1563;SDS011;775;51.958;7.976;2024-03-23T10:58:16;19.00;;;3.13;;
1563;SDS011;775;51.958;7.976;2024-03-23T11:01:04;19.03;;;3.73;;
1563;SDS011;775;51.958;7.976;2024-03-23T11:03:54;18.00;;;3.03;;
1563;SDS011;775;51.958;7.976;2024-03-23T11:06:41;18.40;;;3.57;;
1563;SDS011;775;51.958;7.976;2024-03-23T11:09:40;20.63;;;4.03;;
1563;SDS011;775;51.958;7.976;2024-03-23T11:12:30;18.97;;;3.20;;
1563;SDS011;775;51.958;7.976;2024-03-23T11:15:18;17.40;;;3.10;;
1563;SDS011;775;51.958;7.976;2024-03-23T11:18:06;18.43;;;2.73;;
1563;SDS011;775;51.958;7.976;2024-03-23T11:20:55;19.30;;;2.60;;
1563;SDS011;775;51.958;7.976;2024-03-23T11:23:42;17.83;;;2.73;;
1563;SDS011;775;51.958;7.976;2024-03-23T11:26:29;16.83;;;2.80;;
1563;SDS011;775;51.958;7.976;2024-03-23T11:29:16;16.87;;;2.83;;
1563;SDS011;775;51.958;7.976;2024-03-23T11:32:04;19.33;;;2.70;;
1563;SDS011;775;51.958;7.976;2024-03-23T11:34:51;16.77;;;2.27;;
1563;SDS011;775;51.958;7.976;2024-03-23T11:37:40;19.03;;;3.53;;
1563;SDS011;775;51.958;7.976;2024-03-23T11:40:26;18.53;;;2.60;;
1563;SDS011;775;51.958;7.976;2024-03-23T11:43:14;19.53;;;3.37;;
1563;SDS011;775;51.958;7.976;2024-03-23T11:46:02;17.10;;;2.97;;
1563;SDS011;775;51.958;7.976;2024-03-23T11:48:50;16.10;;;2.23;;
1563;SDS011;775;51.958;7.976;2024-03-23T11:51:36;14.40;;;1.80;;
1563;SDS011;775;51.958;7.976;2024-03-23T11:54:26;16.00;;;1.70;;
1563;SDS011;775;51.958;7.976;2024-03-23T11:57:12;14.70;;;1.80;;
1563;SDS011;775;51.958;7.976;2024-03-23T12:00:00;15.17;;;1.90;;
1563;SDS011;775;51.958;7.976;2024-03-23T12:02:46;14.10;;;1.33;;
1563;SDS011;775;51.958;7.976;2024-03-23T12:05:34;14.13;;;1.27;;
1563;SDS011;775;51.958;7.976;2024-03-23T12:08:21;15.40;;;1.50;;
1563;SDS011;775;51.958;7.976;2024-03-23T12:11:12;16.70;;;1.90;;
1563;SDS011;775;51.958;7.976;2024-03-23T12:13:59;18.97;;;2.43;;
1563;SDS011;775;51.958;7.976;2024-03-23T12:16:47;18.33;;;1.80;;
1563;SDS011;775;51.958;7.976;2024-03-23T12:19:33;15.00;;;1.97;;
1563;SDS011;775;51.958;7.976;2024-03-23T12:22:21;15.27;;;1.60;;
1563;SDS011;775;51.958;7.976;2024-03-23T12:25:08;18.20;;;2.00;;
1563;SDS011;775;51.958;7.976;2024-03-23T12:27:58;15.20;;;2.00;;
1563;SDS011;775;51.958;7.976;2024-03-23T12:30:45;17.63;;;2.37;;
1563;SDS011;775;51.958;7.976;2024-03-23T12:33:32;17.53;;;2.73;;
1563;SDS011;775;51.958;7.976;2024-03-23T12:36:19;15.57;;;2.10;;
1563;SDS011;775;51.958;7.976;2024-03-23T12:39:06;16.50;;;2.40;;
1563;SDS011;775;51.958;7.976;2024-03-23T12:41:53;14.73;;;1.87;;
1563;SDS011;775;51.958;7.976;2024-03-23T12:44:42;15.90;;;2.40;;
1563;SDS011;775;51.958;7.976;2024-03-23T12:47:30;17.00;;;2.23;;
1563;SDS011;775;51.958;7.976;2024-03-23T12:50:17;16.90;;;2.40;;
1563;SDS011;775;51.958;7.976;2024-03-23T12:53:05;16.73;;;2.90;;
1563;SDS011;775;51.958;7.976;2024-03-23T12:55:51;19.00;;;2.40;;
1563;SDS011;775;51.958;7.976;2024-03-23T12:58:39;14.40;;;1.90;;
1563;SDS011;775;51.958;7.976;2024-03-23T13:01:27;15.80;;;1.90;;
1563;SDS011;775;51.958;7.976;2024-03-23T13:04:14;16.30;;;1.80;;
1563;SDS011;775;51.958;7.976;2024-03-23T13:07:02;14.03;;;1.60;;
1563;SDS011;775;51.958;7.976;2024-03-23T13:09:49;13.77;;;1.33;;
1563;SDS011;775;51.958;7.976;2024-03-23T13:12:37;14.70;;;1.30;;
1563;SDS011;775;51.958;7.976;2024-03-23T13:15:24;14.50;;;1.33;;
1563;SDS011;775;51.958;7.976;2024-03-23T13:18:13;17.03;;;1.67;;
1563;SDS011;775;51.958;7.976;2024-03-23T13:21:00;15.67;;;1.70;;
1563;SDS011;775;51.958;7.976;2024-03-23T13:23:48;15.37;;;1.60;;
1563;SDS011;775;51.958;7.976;2024-03-23T13:26:36;14.90;;;2.20;;
1563;SDS011;775;51.958;7.976;2024-03-23T13:29:23;15.87;;;2.30;;
1563;SDS011;775;51.958;7.976;2024-03-23T13:32:10;15.67;;;2.17;;
1563;SDS011;775;51.958;7.976;2024-03-23T13:34:59;15.70;;;2.33;;
1563;SDS011;775;51.958;7.976;2024-03-23T13:37:45;16.17;;;2.63;;
1563;SDS011;775;51.958;7.976;2024-03-23T13:40:34;17.70;;;2.60;;
1563;SDS011;775;51.958;7.976;2024-03-23T13:43:23;16.10;;;2.80;;
1563;SDS011;775;51.958;7.976;2024-03-23T13:46:12;15.50;;;3.10;;
1563;SDS011;775;51.958;7.976;2024-03-23T13:48:58;18.13;;;2.50;;
1563;SDS011;775;51.958;7.976;2024-03-23T13:51:47;18.60;;;3.50;;
1563;SDS011;775;51.958;7.976;2024-03-23T13:54:34;17.80;;;2.57;;
1563;SDS011;775;51.958;7.976;2024-03-23T13:57:23;16.77;;;2.73;;
1563;SDS011;775;51.958;7.976;2024-03-23T14:00:11;19.47;;;3.10;;
1563;SDS011;775;51.958;7.976;2024-03-23T14:02:59;15.90;;;2.83;;
1563;SDS011;775;51.958;7.976;2024-03-23T14:05:46;21.27;;;4.47;;
1563;SDS011;775;51.958;7.976;2024-03-23T14:08:35;19.90;;;3.30;;
1563;SDS011;775;51.958;7.976;2024-03-23T14:11:24;17.07;;;3.20;;
1563;SDS011;775;51.958;7.976;2024-03-23T14:14:14;15.60;;;2.60;;
1563;SDS011;775;51.958;7.976;2024-03-23T14:17:02;16.83;;;3.43;;
1563;SDS011;775;51.958;7.976;2024-03-23T14:19:49;17.37;;;2.50;;
1563;SDS011;775;51.958;7.976;2024-03-23T14:22:36;17.13;;;2.37;;
1563;SDS011;775;51.958;7.976;2024-03-23T14:25:25;16.80;;;2.83;;
1563;SDS011;775;51.958;7.976;2024-03-23T14:28:14;16.90;;;2.93;;
1563;SDS011;775;51.958;7.976;2024-03-23T14:31:02;16.07;;;3.00;;
1563;SDS011;775;51.958;7.976;2024-03-23T14:33:55;17.00;;;3.83;;
1563;SDS011;775;51.958;7.976;2024-03-23T14:36:42;17.33;;;2.80;;
1563;SDS011;775;51.958;7.976;2024-03-23T14:39:30;15.80;;;3.03;;
1563;SDS011;775;51.958;7.976;2024-03-23T14:42:18;16.53;;;3.07;;
1563;SDS011;775;51.958;7.976;2024-03-23T14:45:06;17.33;;;3.90;;
1563;SDS011;775;51.958;7.976;2024-03-23T14:47:52;17.00;;;3.20;;
1563;SDS011;775;51.958;7.976;2024-03-23T14:50:40;19.47;;;3.47;;
1563;SDS011;775;51.958;7.976;2024-03-23T14:53:26;17.47;;;2.70;;
1563;SDS011;775;51.958;7.976;2024-03-23T14:56:15;17.33;;;2.93;;
1563;SDS011;775;51.958;7.976;2024-03-23T14:59:03;16.77;;;3.13;;
1563;SDS011;775;51.958;7.976;2024-03-23T15:01:52;19.87;;;3.00;;
1563;SDS011;775;51.958;7.976;2024-03-23T15:04:39;19.00;;;3.20;;
1563;SDS011;775;51.958;7.976;2024-03-23T15:07:27;16.43;;;2.93;;
1563;SDS011;775;51.958;7.976;2024-03-23T15:10:14;19.67;;;3.30;;
1563;SDS011;775;51.958;7.976;2024-03-23T15:13:01;20.70;;;2.77;;
1563;SDS011;775;51.958;7.976;2024-03-23T15:15:49;18.00;;;2.57;;
1563;SDS011;775;51.958;7.976;2024-03-23T15:18:37;15.93;;;2.40;;
1563;SDS011;775;51.958;7.976;2024-03-23T15:21:24;16.63;;;2.57;;
1563;SDS011;775;51.958;7.976;2024-03-23T15:24:12;15.90;;;2.50;;
1563;SDS011;775;51.958;7.976;2024-03-23T15:26:58;17.73;;;2.40;;
1563;SDS011;775;51.958;7.976;2024-03-23T15:29:46;18.73;;;2.70;;
1563;SDS011;775;51.958;7.976;2024-03-23T15:32:34;17.00;;;2.90;;
1563;SDS011;775;51.958;7.976;2024-03-23T15:35:22;17.97;;;3.03;;
1563;SDS011;775;51.958;7.976;2024-03-23T15:38:09;15.93;;;2.97;;
1563;SDS011;775;51.958;7.976;2024-03-23T15:40:56;19.77;;;2.30;;
1563;SDS011;775;51.958;7.976;2024-03-23T15:43:42;17.20;;;2.57;;
1563;SDS011;775;51.958;7.976;2024-03-23T15:46:30;18.03;;;2.10;;
1563;SDS011;775;51.958;7.976;2024-03-23T15:49:18;15.50;;;2.40;;
1563;SDS011;775;51.958;7.976;2024-03-23T15:52:05;15.90;;;2.30;;
1563;SDS011;775;51.958;7.976;2024-03-23T15:54:53;15.87;;;2.63;;
1563;SDS011;775;51.958;7.976;2024-03-23T15:57:43;17.83;;;2.13;;
1563;SDS011;775;51.958;7.976;2024-03-23T16:00:30;15.13;;;1.83;;
1563;SDS011;775;51.958;7.976;2024-03-23T16:03:17;14.87;;;1.50;;
1563;SDS011;775;51.958;7.976;2024-03-23T16:06:06;16.83;;;1.57;;
1563;SDS011;775;51.958;7.976;2024-03-23T16:08:53;15.07;;;2.00;;
1563;SDS011;775;51.958;7.976;2024-03-23T16:11:40;14.83;;;1.90;;
1563;SDS011;775;51.958;7.976;2024-03-23T16:14:27;14.60;;;1.87;;
1563;SDS011;775;51.958;7.976;2024-03-23T16:17:14;14.27;;;1.60;;
1563;SDS011;775;51.958;7.976;2024-03-23T16:20:02;15.83;;;1.90;;
1563;SDS011;775;51.958;7.976;2024-03-23T16:22:51;16.00;;;2.20;;
1563;SDS011;775;51.958;7.976;2024-03-23T16:25:37;15.83;;;2.00;;
1563;SDS011;775;51.958;7.976;2024-03-23T16:28:28;19.53;;;2.57;;
1563;SDS011;775;51.958;7.976;2024-03-23T16:31:14;15.50;;;1.73;;
1563;SDS011;775;51.958;7.976;2024-03-23T16:34:02;17.33;;;2.50;;
1563;SDS011;775;51.958;7.976;2024-03-23T16:36:49;17.07;;;2.27;;
1563;SDS011;775;51.958;7.976;2024-03-23T16:39:39;16.03;;;2.10;;
1563;SDS011;775;51.958;7.976;2024-03-23T16:42:26;14.80;;;2.10;;
1563;SDS011;775;51.958;7.976;2024-03-23T16:45:13;16.00;;;1.77;;
1563;SDS011;775;51.958;7.976;2024-03-23T16:48:01;16.07;;;2.10;;
1563;SDS011;775;51.958;7.976;2024-03-23T16:50:50;16.57;;;2.00;;
1563;SDS011;775;51.958;7.976;2024-03-23T16:53:37;14.90;;;1.70;;
1563;SDS011;775;51.958;7.976;2024-03-23T16:56:27;14.57;;;1.80;;
1563;SDS011;775;51.958;7.976;2024-03-23T16:59:13;16.03;;;2.13;;
1563;SDS011;775;51.958;7.976;2024-03-23T17:02:01;14.20;;;1.60;;
1563;SDS011;775;51.958;7.976;2024-03-23T17:04:47;17.40;;;1.60;;
1563;SDS011;775;51.958;7.976;2024-03-23T17:07:35;15.47;;;1.70;;
1563;SDS011;775;51.958;7.976;2024-03-23T17:10:21;15.20;;;1.90;;
1563;SDS011;775;51.958;7.976;2024-03-23T17:13:10;18.07;;;2.00;;
1563;SDS011;775;51.958;7.976;2024-03-23T17:15:57;16.83;;;2.20;;
1563;SDS011;775;51.958;7.976;2024-03-23T17:18:46;15.83;;;2.30;;
1563;SDS011;775;51.958;7.976;2024-03-23T17:21:32;15.90;;;2.20;;
1563;SDS011;775;51.958;7.976;2024-03-23T17:24:20;17.07;;;1.73;;
1563;SDS011;775;51.958;7.976;2024-03-23T17:27:06;15.10;;;2.40;;
1563;SDS011;775;51.958;7.976;2024-03-23T17:29:56;14.90;;;2.20;;
1563;SDS011;775;51.958;7.976;2024-03-23T17:32:43;16.37;;;2.10;;
1563;SDS011;775;51.958;7.976;2024-03-23T17:35:30;14.80;;;2.23;;
1563;SDS011;775;51.958;7.976;2024-03-23T17:38:17;18.17;;;3.80;;
1563;SDS011;775;51.958;7.976;2024-03-23T17:41:05;21.80;;;6.23;;
1563;SDS011;775;51.958;7.976;2024-03-23T17:43:51;21.47;;;5.63;;
1563;SDS011;775;51.958;7.976;2024-03-23T17:46:40;28.80;;;8.87;;
1563;SDS011;775;51.958;7.976;2024-03-23T17:49:27;25.43;;;8.20;;
1563;SDS011;775;51.958;7.976;2024-03-23T17:52:14;28.17;;;9.33;;
1563;SDS011;775;51.958;7.976;2024-03-23T17:55:01;20.50;;;6.10;;
1563;SDS011;775;51.958;7.976;2024-03-23T17:57:48;25.90;;;8.67;;
1563;SDS011;775;51.958;7.976;2024-03-23T18:00:35;23.57;;;6.07;;
1563;SDS011;775;51.958;7.976;2024-03-23T18:03:24;25.23;;;7.60;;
1563;SDS011;775;51.958;7.976;2024-03-23T18:06:10;26.17;;;7.30;;
1563;SDS011;775;51.958;7.976;2024-03-23T18:08:58;24.90;;;7.20;;
1563;SDS011;775;51.958;7.976;2024-03-23T18:11:44;22.07;;;5.73;;
1563;SDS011;775;51.958;7.976;2024-03-23T18:14:32;19.53;;;4.33;;